sensor_id;sensor_type;location;lat;lon;timestamp;P1;durP1;ratioP1;P2;durP2;ratioP2
73100;SDS011;61288;53.446;-2.266;2023-10-08T00:01:07;19.70;;;7.50;;
73100;SDS011;61288;53.446;-2.266;2023-10-08T00:03:44;20.63;;;7.18;;
73100;SDS011;61288;53.446;-2.266;2023-10-08T00:06:18;19.67;;;7.50;;
73100;SDS011;61288;53.446;-2.266;2023-10-08T00:08:46;18.08;;;7.50;;
73100;SDS011;61288;53.446;-2.266;2023-10-08T00:11:12;19.38;;;7.13;;
73100;SDS011;61288;53.446;-2.266;2023-10-08T00:13:41;15.80;;;6.50;;
73100;SDS011;61288;53.446;-2.266;2023-10-08T00:16:09;19.20;;;6.53;;
73100;SDS011;61288;53.446;-2.266;2023-10-08T00:18:39;19.60;;;6.68;;
73100;SDS011;61288;53.446;-2.266;2023-10-08T00:21:07;17.58;;;6.55;;
73100;SDS011;61288;53.446;-2.266;2023-10-08T00:23:35;20.35;;;7.53;;
73100;SDS011;61288;53.446;-2.266;2023-10-08T00:26:07;18.05;;;6.80;;
73100;SDS011;61288;53.446;-2.266;2023-10-08T00:28:33;19.35;;;6.68;;
73100;SDS011;61288;53.446;-2.266;2023-10-08T00:31:01;18.65;;;7.05;;
73100;SDS011;61288;53.446;-2.266;2023-10-08T00:33:40;17.88;;;6.80;;
73100;SDS011;61288;53.446;-2.266;2023-10-08T00:36:09;20.88;;;7.68;;
73100;SDS011;61288;53.446;-2.266;2023-10-08T00:38:48;15.80;;;6.38;;
73100;SDS011;61288;53.446;-2.266;2023-10-08T00:43:41;18.00;;;6.68;;
73100;SDS011;61288;53.446;-2.266;2023-10-08T00:46:10;22.25;;;7.88;;
73100;SDS011;61288;53.446;-2.266;2023-10-08T00:48:56;17.73;;;6.78;;
73100;SDS011;61288;53.446;-2.266;2023-10-08T00:51:24;18.77;;;7.53;;
73100;SDS011;61288;53.446;-2.266;2023-10-08T00:54:05;18.17;;;6.70;;
73100;SDS011;61288;53.446;-2.266;2023-10-08T00:56:33;20.25;;;7.68;;
73100;SDS011;61288;53.446;-2.266;2023-10-08T00:59:33;16.83;;;7.00;;
73100;SDS011;61288;53.446;-2.266;2023-10-08T01:02:10;20.25;;;7.00;;
73100;SDS011;61288;53.446;-2.266;2023-10-08T01:04:40;19.45;;;7.50;;
73100;SDS011;61288;53.446;-2.266;2023-10-08T01:07:10;19.25;;;7.80;;
73100;SDS011;61288;53.446;-2.266;2023-10-08T01:09:44;22.00;;;7.78;;
73100;SDS011;61288;53.446;-2.266;2023-10-08T01:12:16;20.52;;;7.28;;
73100;SDS011;61288;53.446;-2.266;2023-10-08T01:14:52;20.65;;;7.28;;
73100;SDS011;61288;53.446;-2.266;2023-10-08T01:17:30;19.67;;;6.72;;
73100;SDS011;61288;53.446;-2.266;2023-10-08T01:19:58;17.90;;;6.90;;
73100;SDS011;61288;53.446;-2.266;2023-10-08T01:22:56;20.05;;;7.10;;
73100;SDS011;61288;53.446;-2.266;2023-10-08T01:25:22;17.38;;;7.15;;
73100;SDS011;61288;53.446;-2.266;2023-10-08T01:27:55;18.20;;;7.53;;
73100;SDS011;61288;53.446;-2.266;2023-10-08T01:30:21;22.10;;;6.93;;
73100;SDS011;61288;53.446;-2.266;2023-10-08T01:32:48;20.30;;;7.47;;
73100;SDS011;61288;53.446;-2.266;2023-10-08T01:35:13;19.40;;;6.97;;
73100;SDS011;61288;53.446;-2.266;2023-10-08T01:37:51;18.35;;;7.13;;
73100;SDS011;61288;53.446;-2.266;2023-10-08T01:40:18;19.98;;;7.40;;
73100;SDS011;61288;53.446;-2.266;2023-10-08T01:42:43;21.63;;;7.30;;
73100;SDS011;61288;53.446;-2.266;2023-10-08T01:45:11;19.85;;;7.18;;
73100;SDS011;61288;53.446;-2.266;2023-10-08T01:47:42;20.90;;;7.63;;
73100;SDS011;61288;53.446;-2.266;2023-10-08T01:50:08;21.20;;;7.88;;
73100;SDS011;61288;53.446;-2.266;2023-10-08T01:52:46;20.70;;;7.18;;
73100;SDS011;61288;53.446;-2.266;2023-10-08T01:55:12;22.05;;;8.32;;
73100;SDS011;61288;53.446;-2.266;2023-10-08T02:00:08;19.88;;;7.85;;
73100;SDS011;61288;53.446;-2.266;2023-10-08T02:02:35;20.30;;;6.63;;
73100;SDS011;61288;53.446;-2.266;2023-10-08T02:05:01;18.50;;;7.50;;
73100;SDS011;61288;53.446;-2.266;2023-10-08T02:07:27;17.67;;;7.18;;
73100;SDS011;61288;53.446;-2.266;2023-10-08T02:09:53;17.48;;;6.90;;
73100;SDS011;61288;53.446;-2.266;2023-10-08T02:12:19;17.98;;;6.80;;
73100;SDS011;61288;53.446;-2.266;2023-10-08T02:14:44;18.88;;;6.93;;
73100;SDS011;61288;53.446;-2.266;2023-10-08T02:17:11;16.80;;;6.70;;
73100;SDS011;61288;53.446;-2.266;2023-10-08T02:19:38;20.08;;;6.65;;
73100;SDS011;61288;53.446;-2.266;2023-10-08T02:22:03;16.48;;;6.20;;
73100;SDS011;61288;53.446;-2.266;2023-10-08T02:24:37;17.20;;;6.80;;
73100;SDS011;61288;53.446;-2.266;2023-10-08T02:27:05;19.95;;;6.15;;
73100;SDS011;61288;53.446;-2.266;2023-10-08T02:29:32;19.05;;;6.35;;
73100;SDS011;61288;53.446;-2.266;2023-10-08T02:31:58;16.58;;;6.22;;
73100;SDS011;61288;53.446;-2.266;2023-10-08T02:34:24;16.73;;;6.00;;
73100;SDS011;61288;53.446;-2.266;2023-10-08T02:36:51;16.38;;;6.18;;
73100;SDS011;61288;53.446;-2.266;2023-10-08T02:39:17;17.63;;;6.10;;
73100;SDS011;61288;53.446;-2.266;2023-10-08T02:41:52;19.27;;;6.22;;
73100;SDS011;61288;53.446;-2.266;2023-10-08T02:44:22;13.43;;;5.90;;
73100;SDS011;61288;53.446;-2.266;2023-10-08T02:46:48;15.13;;;6.15;;
73100;SDS011;61288;53.446;-2.266;2023-10-08T02:49:15;16.25;;;5.85;;
73100;SDS011;61288;53.446;-2.266;2023-10-08T02:51:55;12.95;;;5.70;;
73100;SDS011;61288;53.446;-2.266;2023-10-08T02:54:21;16.88;;;5.80;;
73100;SDS011;61288;53.446;-2.266;2023-10-08T02:56:56;14.95;;;5.55;;
73100;SDS011;61288;53.446;-2.266;2023-10-08T02:59:27;16.45;;;5.18;;
73100;SDS011;61288;53.446;-2.266;2023-10-08T03:01:53;17.35;;;5.70;;
73100;SDS011;61288;53.446;-2.266;2023-10-08T03:04:21;15.20;;;5.55;;
73100;SDS011;61288;53.446;-2.266;2023-10-08T03:06:51;14.07;;;4.93;;
73100;SDS011;61288;53.446;-2.266;2023-10-08T03:09:20;13.98;;;4.97;;
73100;SDS011;61288;53.446;-2.266;2023-10-08T03:11:51;13.85;;;5.00;;
73100;SDS011;61288;53.446;-2.266;2023-10-08T03:14:20;14.43;;;5.03;;
73100;SDS011;61288;53.446;-2.266;2023-10-08T03:16:49;14.80;;;5.03;;
73100;SDS011;61288;53.446;-2.266;2023-10-08T03:19:21;16.67;;;4.97;;
73100;SDS011;61288;53.446;-2.266;2023-10-08T03:21:47;16.80;;;5.88;;
73100;SDS011;61288;53.446;-2.266;2023-10-08T03:24:16;17.02;;;5.60;;
73100;SDS011;61288;53.446;-2.266;2023-10-08T03:27:02;16.77;;;5.57;;
73100;SDS011;61288;53.446;-2.266;2023-10-08T03:29:51;16.20;;;5.22;;
73100;SDS011;61288;53.446;-2.266;2023-10-08T03:32:19;15.95;;;5.75;;
73100;SDS011;61288;53.446;-2.266;2023-10-08T03:34:51;15.80;;;5.45;;
73100;SDS011;61288;53.446;-2.266;2023-10-08T03:37:21;16.08;;;5.13;;
73100;SDS011;61288;53.446;-2.266;2023-10-08T03:39:54;16.40;;;5.50;;
73100;SDS011;61288;53.446;-2.266;2023-10-08T03:42:46;14.75;;;6.00;;
73100;SDS011;61288;53.446;-2.266;2023-10-08T03:45:14;13.68;;;5.20;;
73100;SDS011;61288;53.446;-2.266;2023-10-08T03:47:48;14.65;;;5.43;;
73100;SDS011;61288;53.446;-2.266;2023-10-08T03:50:28;17.55;;;5.65;;
73100;SDS011;61288;53.446;-2.266;2023-10-08T03:53:05;14.55;;;5.30;;
73100;SDS011;61288;53.446;-2.266;2023-10-08T03:55:37;19.02;;;5.50;;
73100;SDS011;61288;53.446;-2.266;2023-10-08T03:58:09;16.13;;;5.30;;
73100;SDS011;61288;53.446;-2.266;2023-10-08T04:00:53;14.20;;;5.30;;
73100;SDS011;61288;53.446;-2.266;2023-10-08T04:03:33;15.60;;;5.57;;
73100;SDS011;61288;53.446;-2.266;2023-10-08T04:06:19;15.40;;;5.78;;
73100;SDS011;61288;53.446;-2.266;2023-10-08T04:08:54;15.38;;;4.85;;
73100;SDS011;61288;53.446;-2.266;2023-10-08T04:11:35;16.45;;;5.80;;
73100;SDS011;61288;53.446;-2.266;2023-10-08T04:14:14;13.82;;;5.63;;
73100;SDS011;61288;53.446;-2.266;2023-10-08T04:16:43;16.92;;;5.75;;
73100;SDS011;61288;53.446;-2.266;2023-10-08T04:19:12;16.08;;;5.38;;
73100;SDS011;61288;53.446;-2.266;2023-10-08T04:21:38;14.18;;;5.15;;
73100;SDS011;61288;53.446;-2.266;2023-10-08T04:24:08;17.02;;;5.80;;
73100;SDS011;61288;53.446;-2.266;2023-10-08T04:26:35;15.90;;;5.43;;
73100;SDS011;61288;53.446;-2.266;2023-10-08T04:29:01;16.45;;;5.25;;
73100;SDS011;61288;53.446;-2.266;2023-10-08T04:31:30;16.52;;;5.00;;
73100;SDS011;61288;53.446;-2.266;2023-10-08T04:34:06;13.73;;;4.95;;
73100;SDS011;61288;53.446;-2.266;2023-10-08T04:36:42;17.35;;;4.72;;
73100;SDS011;61288;53.446;-2.266;2023-10-08T04:39:10;16.35;;;4.88;;
73100;SDS011;61288;53.446;-2.266;2023-10-08T04:41:48;13.13;;;4.85;;
73100;SDS011;61288;53.446;-2.266;2023-10-08T04:44:18;14.20;;;4.60;;
73100;SDS011;61288;53.446;-2.266;2023-10-08T04:46:43;15.73;;;4.57;;
73100;SDS011;61288;53.446;-2.266;2023-10-08T04:49:17;14.77;;;5.07;;
73100;SDS011;61288;53.446;-2.266;2023-10-08T04:51:57;13.55;;;4.28;;
73100;SDS011;61288;53.446;-2.266;2023-10-08T04:54:27;15.93;;;5.05;;
73100;SDS011;61288;53.446;-2.266;2023-10-08T04:57:00;13.20;;;4.40;;
73100;SDS011;61288;53.446;-2.266;2023-10-08T04:59:27;15.15;;;4.65;;
73100;SDS011;61288;53.446;-2.266;2023-10-08T05:02:03;13.73;;;4.53;;
73100;SDS011;61288;53.446;-2.266;2023-10-08T05:04:51;13.57;;;4.95;;
73100;SDS011;61288;53.446;-2.266;2023-10-08T05:07:16;14.10;;;4.57;;
73100;SDS011;61288;53.446;-2.266;2023-10-08T05:09:46;13.35;;;4.28;;
73100;SDS011;61288;53.446;-2.266;2023-10-08T05:12:31;22.20;;;5.28;;
73100;SDS011;61288;53.446;-2.266;2023-10-08T05:15:06;16.17;;;5.45;;
73100;SDS011;61288;53.446;-2.266;2023-10-08T05:17:45;16.77;;;4.78;;
73100;SDS011;61288;53.446;-2.266;2023-10-08T05:20:14;14.40;;;4.78;;
73100;SDS011;61288;53.446;-2.266;2023-10-08T05:23:00;15.20;;;5.03;;
73100;SDS011;61288;53.446;-2.266;2023-10-08T05:25:44;15.70;;;5.72;;
73100;SDS011;61288;53.446;-2.266;2023-10-08T05:28:42;14.30;;;3.88;;
73100;SDS011;61288;53.446;-2.266;2023-10-08T05:31:29;15.30;;;4.70;;
73100;SDS011;61288;53.446;-2.266;2023-10-08T05:34:06;14.23;;;4.70;;
73100;SDS011;61288;53.446;-2.266;2023-10-08T05:37:13;13.02;;;4.88;;
73100;SDS011;61288;53.446;-2.266;2023-10-08T05:39:57;13.90;;;5.18;;
73100;SDS011;61288;53.446;-2.266;2023-10-08T05:42:37;14.43;;;4.50;;
73100;SDS011;61288;53.446;-2.266;2023-10-08T05:45:12;17.00;;;5.80;;
73100;SDS011;61288;53.446;-2.266;2023-10-08T05:47:39;17.40;;;5.22;;
73100;SDS011;61288;53.446;-2.266;2023-10-08T05:50:17;15.32;;;4.97;;
73100;SDS011;61288;53.446;-2.266;2023-10-08T05:52:43;14.50;;;4.97;;
73100;SDS011;61288;53.446;-2.266;2023-10-08T05:55:21;17.48;;;5.00;;
73100;SDS011;61288;53.446;-2.266;2023-10-08T05:58:00;12.43;;;4.45;;
73100;SDS011;61288;53.446;-2.266;2023-10-08T06:00:44;15.07;;;5.28;;
73100;SDS011;61288;53.446;-2.266;2023-10-08T06:03:37;15.35;;;5.53;;
73100;SDS011;61288;53.446;-2.266;2023-10-08T06:06:25;16.63;;;5.28;;
73100;SDS011;61288;53.446;-2.266;2023-10-08T06:09:02;14.60;;;4.88;;
73100;SDS011;61288;53.446;-2.266;2023-10-08T06:11:35;16.70;;;4.50;;
73100;SDS011;61288;53.446;-2.266;2023-10-08T06:14:21;13.10;;;4.00;;
73100;SDS011;61288;53.446;-2.266;2023-10-08T06:17:13;16.15;;;4.72;;
73100;SDS011;61288;53.446;-2.266;2023-10-08T06:19:49;12.52;;;4.18;;
73100;SDS011;61288;53.446;-2.266;2023-10-08T06:22:17;15.70;;;4.60;;
73100;SDS011;61288;53.446;-2.266;2023-10-08T06:24:44;12.80;;;4.32;;
73100;SDS011;61288;53.446;-2.266;2023-10-08T06:27:09;13.30;;;4.80;;
73100;SDS011;61288;53.446;-2.266;2023-10-08T06:29:42;13.10;;;4.82;;
73100;SDS011;61288;53.446;-2.266;2023-10-08T06:32:10;14.50;;;4.78;;
73100;SDS011;61288;53.446;-2.266;2023-10-08T06:34:37;13.23;;;4.20;;
73100;SDS011;61288;53.446;-2.266;2023-10-08T06:37:05;16.67;;;4.35;;
73100;SDS011;61288;53.446;-2.266;2023-10-08T06:39:33;17.85;;;5.68;;
73100;SDS011;61288;53.446;-2.266;2023-10-08T06:41:59;13.80;;;4.70;;
73100;SDS011;61288;53.446;-2.266;2023-10-08T06:44:25;15.65;;;5.00;;
73100;SDS011;61288;53.446;-2.266;2023-10-08T06:46:53;12.63;;;4.93;;
73100;SDS011;61288;53.446;-2.266;2023-10-08T06:49:23;16.38;;;5.28;;
73100;SDS011;61288;53.446;-2.266;2023-10-08T06:51:49;20.05;;;6.22;;
73100;SDS011;61288;53.446;-2.266;2023-10-08T06:54:16;18.17;;;5.72;;
73100;SDS011;61288;53.446;-2.266;2023-10-08T06:56:46;15.70;;;6.03;;
73100;SDS011;61288;53.446;-2.266;2023-10-08T06:59:15;18.33;;;5.95;;
73100;SDS011;61288;53.446;-2.266;2023-10-08T07:01:42;18.85;;;5.78;;
73100;SDS011;61288;53.446;-2.266;2023-10-08T07:04:11;17.40;;;5.70;;
73100;SDS011;61288;53.446;-2.266;2023-10-08T07:06:43;14.82;;;5.13;;
73100;SDS011;61288;53.446;-2.266;2023-10-08T07:09:12;19.60;;;6.43;;
73100;SDS011;61288;53.446;-2.266;2023-10-08T07:11:51;17.45;;;6.57;;
73100;SDS011;61288;53.446;-2.266;2023-10-08T07:14:21;23.17;;;7.10;;
73100;SDS011;61288;53.446;-2.266;2023-10-08T07:16:48;19.92;;;6.07;;
73100;SDS011;61288;53.446;-2.266;2023-10-08T07:19:17;22.45;;;6.88;;
73100;SDS011;61288;53.446;-2.266;2023-10-08T07:21:46;17.05;;;6.38;;
73100;SDS011;61288;53.446;-2.266;2023-10-08T07:24:13;19.48;;;6.30;;
73100;SDS011;61288;53.446;-2.266;2023-10-08T07:29:13;20.10;;;6.78;;
73100;SDS011;61288;53.446;-2.266;2023-10-08T07:31:42;21.98;;;6.70;;
73100;SDS011;61288;53.446;-2.266;2023-10-08T07:34:17;18.23;;;6.55;;
73100;SDS011;61288;53.446;-2.266;2023-10-08T07:36:59;23.27;;;6.78;;
73100;SDS011;61288;53.446;-2.266;2023-10-08T07:39:25;26.02;;;6.90;;
73100;SDS011;61288;53.446;-2.266;2023-10-08T07:41:59;20.63;;;7.57;;
73100;SDS011;61288;53.446;-2.266;2023-10-08T07:44:30;20.83;;;7.80;;
73100;SDS011;61288;53.446;-2.266;2023-10-08T07:46:57;23.75;;;7.97;;
73100;SDS011;61288;53.446;-2.266;2023-10-08T07:49:24;22.55;;;8.38;;
73100;SDS011;61288;53.446;-2.266;2023-10-08T07:51:56;24.25;;;8.57;;
73100;SDS011;61288;53.446;-2.266;2023-10-08T07:54:24;24.27;;;7.70;;
73100;SDS011;61288;53.446;-2.266;2023-10-08T07:56:55;25.95;;;8.07;;
73100;SDS011;61288;53.446;-2.266;2023-10-08T07:59:40;23.98;;;7.82;;
73100;SDS011;61288;53.446;-2.266;2023-10-08T08:02:09;22.38;;;8.02;;
73100;SDS011;61288;53.446;-2.266;2023-10-08T08:04:39;22.17;;;7.82;;
73100;SDS011;61288;53.446;-2.266;2023-10-08T08:07:08;23.20;;;7.97;;
73100;SDS011;61288;53.446;-2.266;2023-10-08T08:09:42;22.90;;;7.93;;
73100;SDS011;61288;53.446;-2.266;2023-10-08T08:12:15;24.08;;;8.05;;
73100;SDS011;61288;53.446;-2.266;2023-10-08T08:14:41;22.98;;;7.47;;
73100;SDS011;61288;53.446;-2.266;2023-10-08T08:17:08;20.95;;;7.85;;
73100;SDS011;61288;53.446;-2.266;2023-10-08T08:19:43;23.48;;;7.47;;
73100;SDS011;61288;53.446;-2.266;2023-10-08T08:22:10;22.63;;;7.47;;
73100;SDS011;61288;53.446;-2.266;2023-10-08T08:24:56;21.55;;;7.63;;
73100;SDS011;61288;53.446;-2.266;2023-10-08T08:27:31;20.00;;;7.30;;
73100;SDS011;61288;53.446;-2.266;2023-10-08T08:29:58;33.63;;;12.60;;
73100;SDS011;61288;53.446;-2.266;2023-10-08T08:32:38;33.42;;;11.30;;
73100;SDS011;61288;53.446;-2.266;2023-10-08T08:35:13;32.53;;;12.30;;
73100;SDS011;61288;53.446;-2.266;2023-10-08T08:37:42;31.02;;;10.93;;
73100;SDS011;61288;53.446;-2.266;2023-10-08T08:40:08;27.52;;;10.07;;
73100;SDS011;61288;53.446;-2.266;2023-10-08T08:42:34;23.65;;;8.25;;
73100;SDS011;61288;53.446;-2.266;2023-10-08T08:45:01;24.38;;;7.57;;
73100;SDS011;61288;53.446;-2.266;2023-10-08T08:47:37;27.77;;;8.40;;
73100;SDS011;61288;53.446;-2.266;2023-10-08T08:50:06;21.67;;;8.68;;
73100;SDS011;61288;53.446;-2.266;2023-10-08T08:52:37;29.27;;;9.13;;
73100;SDS011;61288;53.446;-2.266;2023-10-08T08:55:05;19.65;;;7.20;;
73100;SDS011;61288;53.446;-2.266;2023-10-08T08:57:43;20.13;;;7.68;;
73100;SDS011;61288;53.446;-2.266;2023-10-08T09:00:13;21.63;;;6.97;;
73100;SDS011;61288;53.446;-2.266;2023-10-08T09:02:41;21.85;;;7.68;;
73100;SDS011;61288;53.446;-2.266;2023-10-08T09:05:10;20.60;;;7.20;;
73100;SDS011;61288;53.446;-2.266;2023-10-08T09:07:53;19.30;;;6.95;;
73100;SDS011;61288;53.446;-2.266;2023-10-08T09:10:21;19.95;;;6.90;;
73100;SDS011;61288;53.446;-2.266;2023-10-08T09:12:52;22.88;;;6.78;;
73100;SDS011;61288;53.446;-2.266;2023-10-08T09:15:19;24.25;;;7.20;;
73100;SDS011;61288;53.446;-2.266;2023-10-08T09:17:48;21.98;;;6.97;;
73100;SDS011;61288;53.446;-2.266;2023-10-08T09:20:14;22.35;;;6.03;;
73100;SDS011;61288;53.446;-2.266;2023-10-08T09:22:40;20.50;;;6.38;;
73100;SDS011;61288;53.446;-2.266;2023-10-08T09:25:06;18.38;;;5.55;;
73100;SDS011;61288;53.446;-2.266;2023-10-08T09:27:33;15.05;;;5.57;;
73100;SDS011;61288;53.446;-2.266;2023-10-08T09:29:59;22.23;;;5.78;;
73100;SDS011;61288;53.446;-2.266;2023-10-08T09:32:33;16.90;;;5.53;;
73100;SDS011;61288;53.446;-2.266;2023-10-08T09:35:00;17.15;;;5.50;;
73100;SDS011;61288;53.446;-2.266;2023-10-08T09:37:27;18.10;;;5.25;;
73100;SDS011;61288;53.446;-2.266;2023-10-08T09:39:53;16.48;;;5.45;;
73100;SDS011;61288;53.446;-2.266;2023-10-08T09:42:21;18.10;;;5.22;;
73100;SDS011;61288;53.446;-2.266;2023-10-08T09:44:49;15.88;;;4.97;;
73100;SDS011;61288;53.446;-2.266;2023-10-08T09:47:17;16.13;;;4.97;;
73100;SDS011;61288;53.446;-2.266;2023-10-08T09:49:56;16.60;;;4.60;;
73100;SDS011;61288;53.446;-2.266;2023-10-08T09:52:34;16.73;;;5.43;;
73100;SDS011;61288;53.446;-2.266;2023-10-08T09:55:08;17.13;;;5.75;;
73100;SDS011;61288;53.446;-2.266;2023-10-08T09:57:37;22.95;;;4.97;;
73100;SDS011;61288;53.446;-2.266;2023-10-08T10:00:04;17.58;;;4.15;;
73100;SDS011;61288;53.446;-2.266;2023-10-08T10:02:40;16.00;;;4.78;;
73100;SDS011;61288;53.446;-2.266;2023-10-08T10:05:12;16.67;;;4.38;;
73100;SDS011;61288;53.446;-2.266;2023-10-08T10:07:43;12.60;;;4.07;;
73100;SDS011;61288;53.446;-2.266;2023-10-08T10:10:25;13.73;;;3.95;;
73100;SDS011;61288;53.446;-2.266;2023-10-08T10:12:52;14.98;;;4.63;;
73100;SDS011;61288;53.446;-2.266;2023-10-08T10:15:21;13.38;;;3.80;;
73100;SDS011;61288;53.446;-2.266;2023-10-08T10:17:49;11.65;;;4.07;;
73100;SDS011;61288;53.446;-2.266;2023-10-08T10:20:16;14.20;;;3.90;;
73100;SDS011;61288;53.446;-2.266;2023-10-08T10:22:42;12.75;;;3.47;;
73100;SDS011;61288;53.446;-2.266;2023-10-08T10:25:09;13.68;;;3.85;;
73100;SDS011;61288;53.446;-2.266;2023-10-08T10:28:21;13.85;;;3.70;;
73100;SDS011;61288;53.446;-2.266;2023-10-08T10:30:33;13.35;;;4.00;;
73100;SDS011;61288;53.446;-2.266;2023-10-08T10:33:02;15.98;;;4.72;;
73100;SDS011;61288;53.446;-2.266;2023-10-08T10:35:30;14.40;;;3.83;;
73100;SDS011;61288;53.446;-2.266;2023-10-08T10:37:58;15.38;;;4.20;;
73100;SDS011;61288;53.446;-2.266;2023-10-08T10:40:28;13.88;;;3.83;;
73100;SDS011;61288;53.446;-2.266;2023-10-08T10:42:58;11.38;;;3.42;;
73100;SDS011;61288;53.446;-2.266;2023-10-08T10:45:29;14.20;;;3.88;;
73100;SDS011;61288;53.446;-2.266;2023-10-08T10:48:12;12.95;;;3.70;;
73100;SDS011;61288;53.446;-2.266;2023-10-08T10:50:48;13.13;;;3.72;;
73100;SDS011;61288;53.446;-2.266;2023-10-08T10:53:34;15.40;;;4.28;;
73100;SDS011;61288;53.446;-2.266;2023-10-08T10:56:15;15.18;;;3.42;;
73100;SDS011;61288;53.446;-2.266;2023-10-08T10:58:45;15.02;;;4.00;;
73100;SDS011;61288;53.446;-2.266;2023-10-08T11:01:14;12.00;;;3.20;;
73100;SDS011;61288;53.446;-2.266;2023-10-08T11:03:50;13.63;;;3.58;;
73100;SDS011;61288;53.446;-2.266;2023-10-08T11:06:17;12.00;;;3.60;;
73100;SDS011;61288;53.446;-2.266;2023-10-08T11:08:51;15.70;;;4.28;;
73100;SDS011;61288;53.446;-2.266;2023-10-08T11:11:26;13.85;;;3.72;;
73100;SDS011;61288;53.446;-2.266;2023-10-08T11:14:00;12.85;;;3.50;;
73100;SDS011;61288;53.446;-2.266;2023-10-08T11:16:25;18.80;;;4.03;;
73100;SDS011;61288;53.446;-2.266;2023-10-08T11:18:52;15.98;;;3.83;;
73100;SDS011;61288;53.446;-2.266;2023-10-08T11:21:23;14.93;;;3.90;;
73100;SDS011;61288;53.446;-2.266;2023-10-08T11:23:50;14.05;;;3.70;;
73100;SDS011;61288;53.446;-2.266;2023-10-08T11:26:37;12.20;;;3.50;;
73100;SDS011;61288;53.446;-2.266;2023-10-08T11:29:19;17.05;;;4.15;;
73100;SDS011;61288;53.446;-2.266;2023-10-08T11:31:51;11.75;;;3.78;;
73100;SDS011;61288;53.446;-2.266;2023-10-08T11:34:17;11.32;;;3.40;;
73100;SDS011;61288;53.446;-2.266;2023-10-08T11:36:52;17.35;;;4.05;;
73100;SDS011;61288;53.446;-2.266;2023-10-08T11:39:18;12.40;;;3.60;;
73100;SDS011;61288;53.446;-2.266;2023-10-08T11:42:00;10.98;;;3.35;;
73100;SDS011;61288;53.446;-2.266;2023-10-08T11:44:32;12.38;;;3.72;;
73100;SDS011;61288;53.446;-2.266;2023-10-08T11:47:02;12.05;;;3.58;;
73100;SDS011;61288;53.446;-2.266;2023-10-08T11:49:46;11.35;;;3.40;;
73100;SDS011;61288;53.446;-2.266;2023-10-08T11:52:15;12.10;;;3.67;;
73100;SDS011;61288;53.446;-2.266;2023-10-08T11:54:44;14.18;;;3.70;;
73100;SDS011;61288;53.446;-2.266;2023-10-08T11:57:13;11.23;;;3.47;;
73100;SDS011;61288;53.446;-2.266;2023-10-08T11:59:39;12.93;;;3.85;;
73100;SDS011;61288;53.446;-2.266;2023-10-08T12:02:06;12.30;;;3.28;;
73100;SDS011;61288;53.446;-2.266;2023-10-08T12:04:32;9.93;;;3.20;;
73100;SDS011;61288;53.446;-2.266;2023-10-08T12:06:58;12.25;;;3.35;;
73100;SDS011;61288;53.446;-2.266;2023-10-08T12:09:32;10.75;;;3.30;;
73100;SDS011;61288;53.446;-2.266;2023-10-08T12:12:03;9.73;;;3.60;;
73100;SDS011;61288;53.446;-2.266;2023-10-08T12:14:35;11.75;;;3.30;;
73100;SDS011;61288;53.446;-2.266;2023-10-08T12:17:03;11.45;;;3.60;;
73100;SDS011;61288;53.446;-2.266;2023-10-08T12:19:36;11.75;;;3.33;;
73100;SDS011;61288;53.446;-2.266;2023-10-08T12:22:05;10.90;;;3.03;;
73100;SDS011;61288;53.446;-2.266;2023-10-08T12:24:33;10.75;;;3.28;;
73100;SDS011;61288;53.446;-2.266;2023-10-08T12:26:59;12.30;;;3.30;;
73100;SDS011;61288;53.446;-2.266;2023-10-08T12:29:24;12.25;;;3.33;;
73100;SDS011;61288;53.446;-2.266;2023-10-08T12:31:52;16.33;;;3.78;;
73100;SDS011;61288;53.446;-2.266;2023-10-08T12:34:18;11.98;;;3.38;;
73100;SDS011;61288;53.446;-2.266;2023-10-08T12:36:44;11.50;;;3.05;;
73100;SDS011;61288;53.446;-2.266;2023-10-08T12:39:11;10.85;;;3.17;;
73100;SDS011;61288;53.446;-2.266;2023-10-08T12:41:43;12.00;;;3.47;;
73100;SDS011;61288;53.446;-2.266;2023-10-08T12:44:12;9.82;;;2.95;;
73100;SDS011;61288;53.446;-2.266;2023-10-08T12:46:40;9.45;;;3.53;;
73100;SDS011;61288;53.446;-2.266;2023-10-08T12:49:09;12.05;;;3.50;;
73100;SDS011;61288;53.446;-2.266;2023-10-08T12:51:35;9.90;;;3.10;;
73100;SDS011;61288;53.446;-2.266;2023-10-08T12:54:06;9.93;;;3.25;;
73100;SDS011;61288;53.446;-2.266;2023-10-08T12:56:33;10.68;;;3.15;;
73100;SDS011;61288;53.446;-2.266;2023-10-08T12:59:13;9.43;;;3.20;;
73100;SDS011;61288;53.446;-2.266;2023-10-08T13:01:46;10.85;;;2.97;;
73100;SDS011;61288;53.446;-2.266;2023-10-08T13:04:16;12.80;;;3.72;;
73100;SDS011;61288;53.446;-2.266;2023-10-08T13:06:50;11.27;;;3.10;;
73100;SDS011;61288;53.446;-2.266;2023-10-08T13:09:16;13.32;;;3.63;;
73100;SDS011;61288;53.446;-2.266;2023-10-08T13:11:42;14.13;;;4.10;;
73100;SDS011;61288;53.446;-2.266;2023-10-08T13:14:08;12.85;;;3.38;;
73100;SDS011;61288;53.446;-2.266;2023-10-08T13:16:33;9.90;;;3.20;;
73100;SDS011;61288;53.446;-2.266;2023-10-08T13:19:03;11.60;;;3.50;;
73100;SDS011;61288;53.446;-2.266;2023-10-08T13:21:29;8.38;;;2.85;;
73100;SDS011;61288;53.446;-2.266;2023-10-08T13:23:56;10.20;;;2.90;;
73100;SDS011;61288;53.446;-2.266;2023-10-08T13:26:24;13.00;;;3.90;;
73100;SDS011;61288;53.446;-2.266;2023-10-08T13:28:51;12.45;;;3.42;;
73100;SDS011;61288;53.446;-2.266;2023-10-08T13:31:16;11.15;;;3.22;;
73100;SDS011;61288;53.446;-2.266;2023-10-08T13:33:44;10.05;;;3.13;;
73100;SDS011;61288;53.446;-2.266;2023-10-08T13:38:40;13.57;;;3.17;;
73100;SDS011;61288;53.446;-2.266;2023-10-08T13:41:07;10.30;;;3.20;;
73100;SDS011;61288;53.446;-2.266;2023-10-08T13:43:44;11.05;;;3.50;;
73100;SDS011;61288;53.446;-2.266;2023-10-08T13:46:11;10.82;;;3.10;;
73100;SDS011;61288;53.446;-2.266;2023-10-08T13:48:39;11.25;;;2.88;;
73100;SDS011;61288;53.446;-2.266;2023-10-08T13:51:06;10.13;;;3.00;;
73100;SDS011;61288;53.446;-2.266;2023-10-08T13:53:39;10.85;;;2.95;;
73100;SDS011;61288;53.446;-2.266;2023-10-08T13:56:05;10.90;;;3.05;;
73100;SDS011;61288;53.446;-2.266;2023-10-08T13:58:31;9.40;;;3.30;;
73100;SDS011;61288;53.446;-2.266;2023-10-08T14:00:59;9.88;;;2.90;;
73100;SDS011;61288;53.446;-2.266;2023-10-08T14:03:29;10.00;;;2.88;;
73100;SDS011;61288;53.446;-2.266;2023-10-08T14:05:59;10.57;;;3.40;;
73100;SDS011;61288;53.446;-2.266;2023-10-08T14:08:29;9.43;;;3.10;;
73100;SDS011;61288;53.446;-2.266;2023-10-08T14:10:56;9.75;;;2.97;;
73100;SDS011;61288;53.446;-2.266;2023-10-08T14:13:27;10.70;;;2.75;;
73100;SDS011;61288;53.446;-2.266;2023-10-08T14:15:55;10.55;;;3.03;;
73100;SDS011;61288;53.446;-2.266;2023-10-08T14:18:23;8.80;;;2.83;;
73100;SDS011;61288;53.446;-2.266;2023-10-08T14:20:54;9.68;;;2.60;;
73100;SDS011;61288;53.446;-2.266;2023-10-08T14:23:24;11.27;;;3.20;;
73100;SDS011;61288;53.446;-2.266;2023-10-08T14:25:51;10.98;;;3.28;;
73100;SDS011;61288;53.446;-2.266;2023-10-08T14:28:20;12.88;;;3.40;;
73100;SDS011;61288;53.446;-2.266;2023-10-08T14:31:05;13.27;;;3.15;;
73100;SDS011;61288;53.446;-2.266;2023-10-08T14:33:31;11.23;;;3.05;;
73100;SDS011;61288;53.446;-2.266;2023-10-08T14:36:06;12.55;;;2.90;;
73100;SDS011;61288;53.446;-2.266;2023-10-08T14:38:51;9.60;;;2.70;;
73100;SDS011;61288;53.446;-2.266;2023-10-08T14:41:35;10.77;;;2.72;;
73100;SDS011;61288;53.446;-2.266;2023-10-08T14:44:19;11.23;;;3.00;;
73100;SDS011;61288;53.446;-2.266;2023-10-08T14:46:44;9.60;;;2.78;;
73100;SDS011;61288;53.446;-2.266;2023-10-08T14:49:10;10.18;;;2.85;;
73100;SDS011;61288;53.446;-2.266;2023-10-08T14:51:36;10.15;;;2.92;;
73100;SDS011;61288;53.446;-2.266;2023-10-08T14:56:33;10.30;;;2.72;;
73100;SDS011;61288;53.446;-2.266;2023-10-08T14:59:00;9.98;;;3.10;;